Time;durP1;ratioP1;P1;durP2;ratioP2;P2;SDS_P1;SDS_P2;PMS_P1;PMS_P2;Temp;Humidity;BMP_temperature;BMP_pressure;BME280_temperature;BME280_humidity;BME280_pressure;Samples;Min_cycle;Max_cycle;Signal;HPM_P1;HPM_P2
2023/12/18 00:00:37;;;;;;;14.90;9.17;;;-0.70;99.90;;;;;;5005029;28;20052;-87
2023/12/18 00:03:03;;;;;;;15.03;9.00;;;-0.70;99.90;;;;;;5005000;28;20026;-86
2023/12/18 00:05:28;;;;;;;13.03;8.90;;;-0.70;99.90;;;;;;5004846;28;21434;-88
2023/12/18 00:07:54;;;;;;;12.70;8.53;;;-0.80;99.90;;;;;;5002920;28;20045;-88
2023/12/18 00:10:19;;;;;;;15.30;8.67;;;-0.80;99.90;;;;;;5002762;28;20045;-88
2023/12/18 00:12:45;;;;;;;14.50;9.40;;;-0.80;99.90;;;;;;5005149;28;20036;-87
2023/12/18 00:15:10;;;;;;;14.27;9.43;;;-0.80;99.90;;;;;;5007073;28;20029;-86
2023/12/18 00:17:36;;;;;;;13.90;8.03;;;-0.80;99.90;;;;;;5002787;28;20029;-86
2023/12/18 00:20:02;;;;;;;12.43;9.07;;;-0.80;99.90;;;;;;5001730;28;20085;-87
2023/12/18 00:22:27;;;;;;;12.27;9.23;;;-0.70;99.90;;;;;;4984577;28;20155;-87
2023/12/18 00:24:53;;;;;;;12.87;8.80;;;-0.70;99.90;;;;;;4984344;28;20124;-88
2023/12/18 00:27:20;;;;;;;16.20;10.10;;;-0.70;99.90;;;;;;5004535;28;20761;-86
2023/12/18 00:29:45;;;;;;;12.37;8.97;;;-0.70;99.90;;;;;;5006705;28;20254;-89
2023/12/18 00:32:11;;;;;;;13.60;8.90;;;-0.70;99.90;;;;;;5008955;28;20053;-86
2023/12/18 00:34:40;;;;;;;15.53;8.33;;;-0.70;99.90;;;;;;5006397;28;20044;-87
2023/12/18 00:37:06;;;;;;;12.37;8.23;;;-0.80;99.90;;;;;;5008585;28;20033;-88
2023/12/18 00:39:32;;;;;;;12.07;8.37;;;-0.80;99.90;;;;;;5006738;28;20090;-86
2023/12/18 00:41:57;;;;;;;11.40;7.23;;;-0.80;99.90;;;;;;4992259;28;20025;-88
2023/12/18 00:44:23;;;;;;;10.97;7.40;;;-0.80;99.90;;;;;;5008060;28;20137;-86
2023/12/18 00:46:48;;;;;;;14.03;9.17;;;-0.90;99.90;;;;;;5008223;28;20037;-86
2023/12/18 00:49:15;;;;;;;11.10;7.30;;;-0.90;99.90;;;;;;5008392;28;20077;-88
2023/12/18 00:51:40;;;;;;;11.27;7.17;;;-0.90;99.90;;;;;;5010209;28;20036;-86
2023/12/18 00:54:06;;;;;;;10.83;7.43;;;-0.90;99.90;;;;;;5012811;28;20477;-88
2023/12/18 00:56:32;;;;;;;10.93;7.17;;;-0.90;99.90;;;;;;5013496;28;21421;-86
2023/12/18 00:58:57;;;;;;;11.27;7.63;;;-1.00;99.90;;;;;;5014652;28;20033;-87
2023/12/18 01:01:23;;;;;;;10.93;7.20;;;-1.00;99.90;;;;;;5017713;28;20392;-86
2023/12/18 01:03:49;;;;;;;11.80;7.03;;;-1.00;99.90;;;;;;5000718;28;20034;-86
2023/12/18 01:06:14;;;;;;;12.57;6.77;;;-1.00;99.90;;;;;;5019787;28;20053;-87
2023/12/18 01:08:40;;;;;;;8.53;6.53;;;-1.00;99.90;;;;;;5022640;28;20553;-87
2023/12/18 01:11:05;;;;;;;10.53;6.57;;;-1.00;99.90;;;;;;5024077;28;20030;-87
2023/12/18 01:13:31;;;;;;;13.87;7.03;;;-1.00;99.90;;;;;;5017889;28;20425;-86
2023/12/18 01:15:58;;;;;;;8.60;6.40;;;-1.10;99.90;;;;;;5018558;28;20554;-87
2023/12/18 01:18:24;;;;;;;9.40;6.33;;;-1.10;99.90;;;;;;5017313;28;20512;-86
2023/12/18 01:20:49;;;;;;;11.83;6.63;;;-1.10;99.90;;;;;;5020581;28;20022;-86
2023/12/18 01:23:15;;;;;;;11.43;6.57;;;-1.10;99.90;;;;;;5018112;28;20478;-86
2023/12/18 01:25:41;;;;;;;11.50;7.27;;;-1.10;99.90;;;;;;5018635;28;20041;-85
2023/12/18 01:28:07;;;;;;;9.70;6.77;;;-1.10;99.90;;;;;;5014201;28;20026;-86
2023/12/18 01:30:32;;;;;;;10.13;6.30;;;-1.10;99.90;;;;;;5017115;28;20161;-87
2023/12/18 01:32:58;;;;;;;9.37;6.80;;;-1.10;99.90;;;;;;5014386;28;20683;-86
2023/12/18 01:35:23;;;;;;;10.83;7.17;;;-1.10;99.90;;;;;;5016649;28;20037;-91
2023/12/18 01:37:49;;;;;;;8.17;5.90;;;-1.10;99.90;;;;;;5015304;28;20076;-86
2023/12/18 01:40:15;;;;;;;9.80;6.30;;;-1.10;99.90;;;;;;5019274;28;20473;-85
2023/12/18 01:42:46;;;;;;;9.63;6.40;;;-1.10;99.90;;;;;;5019376;28;20037;-86
2023/12/18 01:45:12;;;;;;;14.97;6.47;;;-1.10;99.90;;;;;;5015912;28;20029;-87
2023/12/18 01:47:39;;;;;;;7.90;5.40;;;-1.20;99.90;;;;;;5015600;28;20037;-86
2023/12/18 01:50:06;;;;;;;10.80;6.50;;;-1.20;99.90;;;;;;5016546;28;20046;-87
2023/12/18 01:52:32;;;;;;;9.17;5.80;;;-1.10;99.90;;;;;;5018366;28;20018;-86
2023/12/18 01:54:58;;;;;;;9.17;6.40;;;-1.20;99.90;;;;;;5019188;28;20022;-86
2023/12/18 01:57:25;;;;;;;9.30;6.00;;;-1.10;99.90;;;;;;5021734;28;20914;-86
2023/12/18 01:59:51;;;;;;;9.33;6.17;;;-1.10;99.90;;;;;;5021949;28;20056;-86
2023/12/18 02:02:17;;;;;;;9.77;5.60;;;-1.10;99.90;;;;;;5020171;28;20053;-86
2023/12/18 02:04:43;;;;;;;8.53;5.97;;;-1.10;99.90;;;;;;5019290;28;20665;-86
2023/12/18 02:07:09;;;;;;;9.43;5.77;;;-1.10;99.90;;;;;;5018318;28;20104;-86
2023/12/18 02:09:35;;;;;;;9.30;5.73;;;-1.10;99.90;;;;;;5023028;28;20044;-89
2023/12/18 02:12:01;;;;;;;24.97;7.17;;;-1.10;99.90;;;;;;5023429;28;20034;-86
2023/12/18 02:14:27;;;;;;;10.43;6.27;;;-1.10;99.90;;;;;;5020623;28;20532;-86
2023/12/18 02:16:53;;;;;;;8.47;5.90;;;-1.00;99.90;;;;;;5020285;28;20022;-87
2023/12/18 02:19:26;;;;;;;7.90;5.47;;;-1.00;99.90;;;;;;5021073;28;20133;-86
2023/12/18 02:21:52;;;;;;;8.90;5.77;;;-1.00;99.90;;;;;;5020163;28;20038;-90
2023/12/18 02:24:18;;;;;;;8.53;5.20;;;-1.00;99.90;;;;;;5023387;28;20076;-89
2023/12/18 02:26:44;;;;;;;6.77;5.23;;;-1.00;99.90;;;;;;5018320;28;20072;-88
2023/12/18 02:29:10;;;;;;;8.83;5.57;;;-1.00;99.90;;;;;;5019732;28;20037;-86
2023/12/18 02:31:36;;;;;;;9.07;6.20;;;-1.00;99.90;;;;;;5018493;28;20056;-88
2023/12/18 02:34:02;;;;;;;12.23;5.83;;;-1.00;99.90;;;;;;5021335;28;20125;-86
2023/12/18 02:36:28;;;;;;;8.07;5.37;;;-1.00;99.90;;;;;;5019548;28;20042;-88
2023/12/18 02:38:54;;;;;;;7.23;5.00;;;-1.00;99.90;;;;;;5021388;28;20029;-87
2023/12/18 02:41:19;;;;;;;10.37;5.37;;;-1.00;99.90;;;;;;5000170;28;20038;-89
2023/12/18 02:43:45;;;;;;;9.40;5.93;;;-1.00;99.90;;;;;;5019800;28;20037;-86
2023/12/18 02:46:11;;;;;;;7.47;5.57;;;-1.00;99.90;;;;;;5019355;28;20079;-89
2023/12/18 02:48:36;;;;;;;9.77;5.40;;;-1.00;99.90;;;;;;5019828;28;20026;-87
2023/12/18 02:51:02;;;;;;;8.80;5.63;;;-1.00;99.90;;;;;;5019513;28;20022;-88
2023/12/18 02:53:28;;;;;;;8.20;5.67;;;-1.00;99.90;;;;;;5016888;28;20034;-88
2023/12/18 02:55:54;;;;;;;9.60;5.27;;;-1.10;99.90;;;;;;5019115;28;20411;-89
2023/12/18 02:58:21;;;;;;;7.20;4.80;;;-1.10;99.90;;;;;;5017738;28;20121;-86
2023/12/18 03:00:47;;;;;;;10.27;5.63;;;-1.10;99.90;;;;;;5019241;28;20029;-86
2023/12/18 03:03:13;;;;;;;7.97;5.60;;;-1.10;99.90;;;;;;5015174;28;20596;-87
2023/12/18 03:05:38;;;;;;;8.70;5.60;;;-1.10;99.90;;;;;;5000360;28;20090;-88
2023/12/18 03:08:04;;;;;;;8.90;5.33;;;-1.10;99.90;;;;;;5018512;28;20179;-86
2023/12/18 03:10:30;;;;;;;8.30;5.80;;;-1.10;99.90;;;;;;5019837;28;20103;-89
2023/12/18 03:12:56;;;;;;;6.67;5.10;;;-1.10;99.90;;;;;;5019538;28;20028;-87
2023/12/18 03:15:21;;;;;;;8.00;5.60;;;-1.10;99.90;;;;;;5017709;28;20117;-86
2023/12/18 03:17:47;;;;;;;7.73;5.47;;;-1.10;99.90;;;;;;5024361;28;20030;-86
2023/12/18 03:20:12;;;;;;;7.27;4.90;;;-1.10;99.90;;;;;;5020584;28;20034;-90
2023/12/18 03:22:38;;;;;;;8.20;5.77;;;-1.10;99.90;;;;;;5020839;28;20036;-89
2023/12/18 03:25:04;;;;;;;8.03;5.50;;;-1.10;99.90;;;;;;5018074;28;20029;-86
2023/12/18 03:27:30;;;;;;;7.67;5.23;;;-1.10;99.90;;;;;;5018772;28;20117;-85
2023/12/18 03:29:55;;;;;;;8.83;5.40;;;-1.10;99.90;;;;;;5019230;28;21642;-87
2023/12/18 03:32:21;;;;;;;8.10;5.23;;;-1.10;99.90;;;;;;5018590;28;20123;-88
2023/12/18 03:34:46;;;;;;;8.20;5.00;;;-1.00;99.90;;;;;;5018291;28;20033;-89
2023/12/18 03:37:12;;;;;;;8.10;5.13;;;-1.00;99.90;;;;;;5017050;28;20022;-87
2023/12/18 03:39:37;;;;;;;7.60;5.13;;;-1.00;99.90;;;;;;5012846;28;20029;-86
2023/12/18 03:42:03;;;;;;;8.13;5.10;;;-1.00;99.90;;;;;;5017971;28;20140;-89
2023/12/18 03:44:29;;;;;;;7.87;5.30;;;-1.00;99.90;;;;;;5017796;28;20443;-86
2023/12/18 03:46:55;;;;;;;8.10;5.53;;;-1.00;99.90;;;;;;5015462;28;20056;-88
2023/12/18 03:49:20;;;;;;;10.70;6.10;;;-0.90;99.90;;;;;;5016949;28;20018;-86
2023/12/18 03:51:46;;;;;;;8.40;5.73;;;-0.90;99.90;;;;;;4999845;28;20033;-86
2023/12/18 03:54:11;;;;;;;9.20;5.90;;;-0.90;99.90;;;;;;5017511;28;20022;-89
2023/12/18 03:56:37;;;;;;;11.93;7.10;;;-0.90;99.90;;;;;;5016747;28;20487;-88
2023/12/18 03:59:02;;;;;;;12.30;6.30;;;-0.90;99.90;;;;;;5022038;28;20053;-86
2023/12/18 04:01:32;;;;;;;10.23;5.67;;;-0.90;99.90;;;;;;5014166;28;20146;-86
2023/12/18 04:03:58;;;;;;;8.97;5.40;;;-1.00;99.90;;;;;;5016525;28;20105;-86
2023/12/18 04:06:23;;;;;;;8.50;5.77;;;-0.90;99.90;;;;;;5014902;28;20048;-86
2023/12/18 04:08:49;;;;;;;8.67;5.90;;;-1.00;99.90;;;;;;5019075;28;20028;-86
2023/12/18 04:11:18;;;;;;;8.57;5.60;;;-1.00;99.90;;;;;;5018166;28;20044;-87
2023/12/18 04:13:44;;;;;;;7.67;4.77;;;-0.90;99.90;;;;;;5017985;28;20192;-86
2023/12/18 04:16:10;;;;;;;8.67;5.33;;;-0.90;99.90;;;;;;4994344;28;20472;-86
2023/12/18 04:18:36;;;;;;;6.63;4.43;;;-0.90;99.90;;;;;;5017112;28;20071;-88
2023/12/18 04:21:02;;;;;;;6.60;4.80;;;-0.90;99.90;;;;;;5013041;28;20094;-86
2023/12/18 04:23:28;;;;;;;8.07;4.77;;;-0.90;99.90;;;;;;5016797;28;20060;-91
2023/12/18 04:25:53;;;;;;;7.13;4.70;;;-0.90;99.90;;;;;;5016405;28;20026;-87
2023/12/18 04:28:19;;;;;;;6.50;4.40;;;-1.00;99.90;;;;;;5016596;28;20034;-86
2023/12/18 04:30:44;;;;;;;9.20;5.03;;;-1.00;99.90;;;;;;5000219;28;20041;-86
2023/12/18 04:33:10;;;;;;;7.80;4.37;;;-1.00;99.90;;;;;;5000773;28;20041;-87
2023/12/18 04:35:36;;;;;;;6.90;4.30;;;-1.00;99.90;;;;;;5017935;28;20483;-86
2023/12/18 04:38:01;;;;;;;8.83;5.03;;;-1.00;99.90;;;;;;5000759;28;20030;-87
2023/12/18 04:40:27;;;;;;;8.03;3.87;;;-1.00;99.90;;;;;;5013883;28;20104;-88
2023/12/18 04:42:54;;;;;;;6.40;3.77;;;-1.10;99.90;;;;;;5013943;28;20034;-87
2023/12/18 04:45:20;;;;;;;12.40;4.77;;;-1.10;99.90;;;;;;5013593;28;20033;-89
2023/12/18 04:47:46;;;;;;;5.07;3.80;;;-1.10;99.90;;;;;;5013718;28;20153;-87
2023/12/18 04:50:12;;;;;;;5.87;3.90;;;-1.10;99.90;;;;;;5010537;28;20030;-88
2023/12/18 04:52:38;;;;;;;6.90;3.97;;;-1.10;99.90;;;;;;5013187;28;20113;-89
2023/12/18 04:55:04;;;;;;;7.40;4.33;;;-1.10;99.90;;;;;;5012387;28;20064;-90
2023/12/18 04:57:29;;;;;;;10.80;4.20;;;-1.10;99.90;;;;;;5012527;28;20053;-91
2023/12/18 04:59:55;;;;;;;6.73;4.40;;;-1.10;99.90;;;;;;5014257;28;20070;-86
2023/12/18 05:02:20;;;;;;;6.80;4.10;;;-1.10;99.90;;;;;;5015716;28;20038;-86
2023/12/18 05:04:46;;;;;;;7.27;4.67;;;-1.10;99.90;;;;;;5010997;28;20125;-89
2023/12/18 05:07:12;;;;;;;6.83;4.20;;;-1.10;99.90;;;;;;5014843;28;20018;-87
2023/12/18 05:09:38;;;;;;;11.53;4.67;;;-1.10;99.90;;;;;;4997059;28;20080;-94
2023/12/18 05:12:04;;;;;;;7.93;3.70;;;-1.10;99.90;;;;;;5013868;28;20034;-87
2023/12/18 05:14:29;;;;;;;6.33;4.10;;;-1.10;99.90;;;;;;5010100;28;20052;-84
2023/12/18 05:16:55;;;;;;;7.60;4.07;;;-1.10;99.90;;;;;;4987057;28;20037;-87
2023/12/18 05:19:20;;;;;;;11.27;4.33;;;-1.10;99.90;;;;;;5016863;28;20022;-86
2023/12/18 05:21:46;;;;;;;6.90;4.20;;;-1.10;99.90;;;;;;5013280;28;20022;-85
2023/12/18 05:24:11;;;;;;;8.50;3.90;;;-1.10;99.90;;;;;;5015994;28;20025;-88
2023/12/18 05:26:37;;;;;;;5.67;4.00;;;-1.20;99.90;;;;;;5020245;28;20048;-87
2023/12/18 05:29:03;;;;;;;7.53;4.40;;;-1.20;99.90;;;;;;5019678;28;20037;-87
2023/12/18 05:31:28;;;;;;;6.23;4.23;;;-1.20;99.90;;;;;;5020958;28;20037;-86
2023/12/18 05:33:54;;;;;;;9.20;5.17;;;-1.20;99.90;;;;;;5024464;28;20056;-87
2023/12/18 05:36:19;;;;;;;7.47;5.20;;;-1.20;99.90;;;;;;5021548;28;20018;-86
2023/12/18 05:38:45;;;;;;;9.77;4.87;;;-1.30;99.90;;;;;;5023923;28;20022;-86
2023/12/18 05:41:10;;;;;;;9.60;4.63;;;-1.30;99.90;;;;;;5025779;28;20025;-86
2023/12/18 05:43:36;;;;;;;10.33;4.77;;;-1.20;99.90;;;;;;5022772;28;20496;-88
2023/12/18 05:46:02;;;;;;;11.90;5.37;;;-1.20;99.90;;;;;;5021858;28;20026;-87
2023/12/18 05:48:27;;;;;;;11.40;5.23;;;-1.30;99.90;;;;;;5023973;28;20030;-86
2023/12/18 05:50:53;;;;;;;12.73;7.47;;;-1.20;99.90;;;;;;5019803;28;20054;-86
2023/12/18 05:53:18;;;;;;;20.77;9.90;;;-1.20;99.90;;;;;;5007653;28;20030;-87
2023/12/18 05:55:44;;;;;;;22.13;11.03;;;-1.20;99.90;;;;;;5017581;28;20038;-88
2023/12/18 05:58:09;;;;;;;21.73;11.40;;;-1.20;99.90;;;;;;5007783;28;20029;-80
2023/12/18 06:00:36;;;;;;;16.40;9.00;;;-1.20;99.90;;;;;;4998504;28;20037;-80
2023/12/18 06:03:01;;;;;;;20.97;9.80;;;-1.20;99.90;;;;;;4998260;28;20036;-78
2023/12/18 06:05:27;;;;;;;12.93;7.33;;;-1.20;99.90;;;;;;4996604;28;20900;-78
2023/12/18 06:07:52;;;;;;;17.97;8.90;;;-1.20;99.90;;;;;;4996933;28;20548;-79
2023/12/18 06:10:18;;;;;;;13.33;6.97;;;-1.20;99.90;;;;;;4996513;28;21221;-79
2023/12/18 06:12:43;;;;;;;13.80;7.33;;;-1.20;99.90;;;;;;4997828;28;20403;-78
2023/12/18 06:15:09;;;;;;;11.47;6.87;;;-1.20;99.90;;;;;;4996843;28;20484;-78
2023/12/18 06:17:34;;;;;;;14.03;7.03;;;-1.10;99.90;;;;;;4992375;28;20026;-79
2023/12/18 06:20:00;;;;;;;12.77;6.73;;;-1.10;99.90;;;;;;4994881;28;20030;-79
2023/12/18 06:22:25;;;;;;;14.30;7.37;;;-1.10;99.90;;;;;;4996322;28;20393;-79
2023/12/18 06:24:51;;;;;;;12.60;6.40;;;-1.10;99.90;;;;;;4995582;28;20022;-79
2023/12/18 06:27:17;;;;;;;15.60;6.10;;;-1.10;99.90;;;;;;4996790;28;20034;-79
2023/12/18 06:29:43;;;;;;;12.50;5.40;;;-1.10;99.90;;;;;;4998009;28;21109;-79
2023/12/18 06:32:09;;;;;;;12.23;5.03;;;-1.10;99.90;;;;;;4997270;28;20084;-79
2023/12/18 06:34:34;;;;;;;8.70;4.87;;;-1.10;99.90;;;;;;4996425;28;20764;-79
2023/12/18 06:37:00;;;;;;;8.37;4.40;;;-1.00;99.90;;;;;;4996561;28;20037;-79
2023/12/18 06:39:26;;;;;;;9.10;4.20;;;-1.00;99.90;;;;;;4997804;28;20469;-79
2023/12/18 06:41:51;;;;;;;8.00;4.17;;;-0.90;99.90;;;;;;4988610;28;20045;-86
2023/12/18 06:44:17;;;;;;;8.33;4.00;;;-0.80;99.90;;;;;;4993512;28;20030;-85
2023/12/18 06:46:42;;;;;;;6.53;3.90;;;-0.70;99.90;;;;;;4995216;28;20026;-84
2023/12/18 06:49:08;;;;;;;5.60;3.80;;;-0.70;99.90;;;;;;4996978;28;21070;-87
2023/12/18 06:51:33;;;;;;;5.17;3.50;;;-0.60;99.90;;;;;;4994426;28;20584;-86
2023/12/18 06:53:59;;;;;;;6.73;3.63;;;-0.60;99.90;;;;;;4995686;28;20562;-85
2023/12/18 06:56:24;;;;;;;5.33;3.40;;;-0.60;99.90;;;;;;4994094;28;20146;-86
2023/12/18 06:58:50;;;;;;;5.40;3.23;;;-0.60;99.90;;;;;;4995330;28;20850;-84
2023/12/18 07:01:16;;;;;;;5.67;3.40;;;-0.50;99.90;;;;;;4994894;28;20038;-85
2023/12/18 07:03:42;;;;;;;5.27;3.70;;;-0.60;99.90;;;;;;4994857;28;20607;-85
2023/12/18 07:06:07;;;;;;;8.27;4.20;;;-0.50;99.90;;;;;;4993718;28;20038;-86
2023/12/18 07:08:33;;;;;;;7.10;4.50;;;-0.50;99.90;;;;;;4994024;28;20034;-85
2023/12/18 07:10:58;;;;;;;6.73;4.37;;;-0.50;99.90;;;;;;4994300;28;20044;-88
2023/12/18 07:13:24;;;;;;;5.73;3.93;;;-0.50;99.90;;;;;;4996164;28;20034;-85
2023/12/18 07:15:50;;;;;;;7.00;3.80;;;-0.50;99.90;;;;;;4995997;28;20049;-83
2023/12/18 07:18:17;;;;;;;5.90;4.00;;;-0.60;99.90;;;;;;4992794;28;20168;-84
2023/12/18 07:20:43;;;;;;;6.57;3.20;;;-0.60;99.90;;;;;;4993038;28;20069;-84
2023/12/18 07:23:10;;;;;;;6.07;3.20;;;-0.60;99.90;;;;;;4998912;28;20034;-81
2023/12/18 07:25:35;;;;;;;5.77;3.50;;;-0.60;99.90;;;;;;5003849;28;20389;-81
2023/12/18 07:28:01;;;;;;;5.20;3.30;;;-0.60;99.90;;;;;;5002479;28;20049;-81
2023/12/18 07:30:26;;;;;;;7.00;3.60;;;-0.70;99.90;;;;;;5002959;28;20049;-80
2023/12/18 07:32:52;;;;;;;11.67;4.60;;;-0.60;99.90;;;;;;5003557;28;20034;-81
2023/12/18 07:35:18;;;;;;;7.93;3.57;;;-0.60;99.90;;;;;;5004441;28;20465;-79
2023/12/18 07:37:46;;;;;;;6.57;3.80;;;-0.60;99.90;;;;;;5001591;28;20034;-80
2023/12/18 07:40:12;;;;;;;6.33;3.53;;;-0.60;99.90;;;;;;4987025;28;20048;-80
2023/12/18 07:42:38;;;;;;;9.87;3.83;;;-0.60;99.90;;;;;;5004266;28;20030;-80
2023/12/18 07:45:04;;;;;;;6.07;4.00;;;-0.50;99.90;;;;;;5004587;28;20034;-81
2023/12/18 07:47:29;;;;;;;7.57;3.97;;;-0.50;99.90;;;;;;5003414;28;20033;-80
2023/12/18 07:49:55;;;;;;;7.80;4.50;;;-0.50;99.90;;;;;;5003743;28;20040;-80
2023/12/18 07:52:21;;;;;;;6.90;4.57;;;-0.40;99.90;;;;;;5005312;28;20045;-80
2023/12/18 07:54:48;;;;;;;11.33;4.40;;;-0.50;99.90;;;;;;5004461;28;20156;-81
2023/12/18 07:57:14;;;;;;;6.83;4.17;;;-0.40;99.90;;;;;;5006688;28;20034;-79
2023/12/18 07:59:39;;;;;;;7.33;4.50;;;-0.40;99.90;;;;;;5006179;28;20029;-80
2023/12/18 08:02:08;;;;;;;7.70;4.40;;;-0.40;99.90;;;;;;5009704;28;20034;-81
2023/12/18 08:04:35;;;;;;;9.03;4.40;;;-0.40;99.90;;;;;;5007094;28;20120;-80
2023/12/18 08:07:01;;;;;;;6.47;4.60;;;-0.40;99.90;;;;;;5010211;28;20045;-80
2023/12/18 08:09:27;;;;;;;6.40;4.70;;;-0.40;99.90;;;;;;4992764;28;20030;-80
2023/12/18 08:11:53;;;;;;;7.37;4.50;;;-0.30;99.90;;;;;;4996661;28;20042;-81
2023/12/18 08:14:19;;;;;;;6.97;4.30;;;-0.30;99.90;;;;;;5013969;28;20876;-80
2023/12/18 08:16:44;;;;;;;7.67;4.10;;;-0.30;99.90;;;;;;5010831;28;20082;-80
2023/12/18 08:19:10;;;;;;;7.23;4.90;;;-0.30;99.90;;;;;;5008777;28;20030;-80
2023/12/18 08:21:35;;;;;;;9.43;5.17;;;-0.20;99.90;;;;;;5008891;28;20065;-80
2023/12/18 08:24:01;;;;;;;9.33;5.30;;;-0.20;99.90;;;;;;5009002;28;20113;-80
2023/12/18 08:26:26;;;;;;;7.63;4.70;;;-0.20;99.90;;;;;;5010031;28;20393;-80
2023/12/18 08:28:52;;;;;;;6.53;4.50;;;-0.10;99.90;;;;;;5008437;28;20911;-80
2023/12/18 08:31:17;;;;;;;9.47;5.37;;;-0.10;99.90;;;;;;5011486;28;20097;-80
2023/12/18 08:33:43;;;;;;;10.43;4.90;;;0.00;99.90;;;;;;5007598;28;20026;-81
2023/12/18 08:36:09;;;;;;;11.00;4.33;;;0.00;99.90;;;;;;5007669;28;20036;-80
2023/12/18 08:38:34;;;;;;;8.57;4.20;;;0.10;99.90;;;;;;5007803;28;20037;-80
2023/12/18 08:41:00;;;;;;;6.47;3.67;;;0.20;99.90;;;;;;5007175;28;20053;-80
2023/12/18 08:43:25;;;;;;;7.87;4.03;;;0.30;99.90;;;;;;5007323;28;20022;-80
2023/12/18 08:45:51;;;;;;;8.43;4.17;;;0.40;99.90;;;;;;5007722;28;20034;-80
2023/12/18 08:48:16;;;;;;;9.37;4.73;;;0.50;99.90;;;;;;5008573;28;20053;-81
2023/12/18 08:50:43;;;;;;;8.87;5.13;;;0.60;99.90;;;;;;5008844;28;20049;-80
2023/12/18 08:53:08;;;;;;;11.00;5.27;;;0.70;99.90;;;;;;5010716;28;20451;-80
2023/12/18 08:55:38;;;;;;;8.77;4.53;;;0.70;99.90;;;;;;5010974;28;20037;-80
2023/12/18 08:58:07;;;;;;;5.93;4.07;;;0.80;99.90;;;;;;5009674;28;20034;-80
2023/12/18 09:00:36;;;;;;;6.63;4.20;;;0.90;99.90;;;;;;5006563;28;20045;-80
2023/12/18 09:03:02;;;;;;;10.37;4.30;;;1.00;99.90;;;;;;5009403;28;20038;-81
2023/12/18 09:05:28;;;;;;;6.60;3.90;;;1.00;99.90;;;;;;5009058;28;20199;-81
2023/12/18 09:07:54;;;;;;;9.10;5.07;;;1.10;99.90;;;;;;4986220;28;20044;-79
2023/12/18 09:10:22;;;;;;;9.43;5.50;;;1.20;99.90;;;;;;4987949;28;20034;-80
2023/12/18 09:12:51;;;;;;;9.43;5.63;;;1.30;99.90;;;;;;4988860;28;20045;-80
2023/12/18 09:15:16;;;;;;;9.97;5.40;;;1.40;99.90;;;;;;5007392;28;20527;-80
2023/12/18 09:17:42;;;;;;;11.30;6.70;;;1.40;99.90;;;;;;5007162;28;20117;-80
2023/12/18 09:20:08;;;;;;;13.20;6.43;;;1.40;99.90;;;;;;5008089;28;20101;-80
2023/12/18 09:22:35;;;;;;;9.03;6.03;;;1.50;99.90;;;;;;5010159;28;20048;-80
2023/12/18 09:25:01;;;;;;;9.57;5.03;;;1.60;99.90;;;;;;5007056;28;20093;-81
2023/12/18 09:27:26;;;;;;;9.67;4.87;;;1.60;99.90;;;;;;4991655;28;20053;-80
2023/12/18 09:29:52;;;;;;;10.13;5.50;;;1.70;99.90;;;;;;4989892;28;20041;-80
2023/12/18 09:32:17;;;;;;;9.27;5.73;;;1.80;99.90;;;;;;5008107;28;20042;-80
2023/12/18 09:34:43;;;;;;;9.80;5.80;;;1.90;99.90;;;;;;5006235;28;20030;-80
2023/12/18 09:37:08;;;;;;;8.90;4.90;;;2.00;99.90;;;;;;5007041;28;20042;-80
2023/12/18 09:39:34;;;;;;;8.00;4.60;;;2.10;99.90;;;;;;4991352;28;20027;-80
2023/12/18 09:42:04;;;;;;;8.93;5.03;;;2.20;99.90;;;;;;5009539;28;20061;-80
2023/12/18 09:44:31;;;;;;;8.07;4.93;;;2.30;99.90;;;;;;5002919;28;20041;-80
2023/12/18 09:46:59;;;;;;;7.13;4.13;;;2.40;99.90;;;;;;5005734;28;20032;-80
2023/12/18 09:49:24;;;;;;;7.03;3.80;;;2.50;99.90;;;;;;5005890;28;20153;-80
2023/12/18 09:52:04;;;;;;;6.77;3.83;;;2.70;99.90;;;;;;5005227;28;20122;-79
2023/12/18 09:54:31;;;;;;;9.30;3.80;;;2.80;99.90;;;;;;5002607;28;20052;-80
2023/12/18 09:56:59;;;;;;;4.90;3.70;;;3.00;99.90;;;;;;5002906;28;20034;-79
2023/12/18 09:59:24;;;;;;;5.97;3.77;;;3.10;99.90;;;;;;5004005;28;20275;-79
2023/12/18 10:01:54;;;;;;;5.03;3.13;;;3.30;99.90;;;;;;5004305;28;20536;-80
2023/12/18 10:04:19;;;;;;;5.63;3.47;;;3.50;99.90;;;;;;5004506;28;20124;-80
2023/12/18 10:06:45;;;;;;;6.70;3.33;;;3.70;99.90;;;;;;5004675;28;21528;-80
2023/12/18 10:09:14;;;;;;;6.50;3.50;;;3.80;99.90;;;;;;5004335;28;20037;-81
2023/12/18 10:11:41;;;;;;;7.73;3.00;;;4.10;99.90;;;;;;5010051;28;20685;-80
2023/12/18 10:14:07;;;;;;;7.90;3.33;;;4.30;99.90;;;;;;5009419;28;20030;-80
2023/12/18 10:16:33;;;;;;;4.90;3.30;;;4.50;99.90;;;;;;4991441;28;20038;-80
2023/12/18 10:18:59;;;;;;;5.73;3.33;;;4.80;99.90;;;;;;5008002;28;20038;-80
2023/12/18 10:21:24;;;;;;;6.03;2.93;;;5.00;99.90;;;;;;5006205;28;20034;-80
2023/12/18 10:23:52;;;;;;;6.00;3.00;;;5.10;99.90;;;;;;5006849;28;20034;-80
2023/12/18 10:26:18;;;;;;;4.20;2.70;;;5.10;99.90;;;;;;5006322;28;20050;-79
2023/12/18 10:28:45;;;;;;;4.07;3.03;;;5.20;99.90;;;;;;5006339;28;20049;-80
2023/12/18 10:31:10;;;;;;;3.80;2.60;;;5.20;99.90;;;;;;5009135;28;20046;-80
2023/12/18 10:33:37;;;;;;;4.70;3.07;;;5.20;99.90;;;;;;5006445;28;20049;-81
2023/12/18 10:36:06;;;;;;;4.53;2.70;;;5.20;99.90;;;;;;5008678;28;20033;-80
2023/12/18 10:38:34;;;;;;;5.77;3.27;;;5.20;99.90;;;;;;4989558;28;20727;-80
2023/12/18 10:41:02;;;;;;;4.10;2.80;;;5.20;99.90;;;;;;5011008;28;20151;-79
2023/12/18 10:43:30;;;;;;;10.33;4.30;;;5.20;99.90;;;;;;5009203;28;20029;-80
2023/12/18 10:45:57;;;;;;;7.40;4.53;;;5.20;99.90;;;;;;5006996;28;20606;-79
2023/12/18 10:48:25;;;;;;;10.53;7.30;;;5.20;99.90;;;;;;4989039;28;20076;-79
2023/12/18 10:50:55;;;;;;;6.83;4.40;;;5.30;99.90;;;;;;5006671;28;20041;-86
2023/12/18 10:53:21;;;;;;;8.57;3.70;;;5.40;99.90;;;;;;5004015;28;20050;-85
2023/12/18 10:55:48;;;;;;;5.80;3.83;;;5.50;99.90;;;;;;5003982;28;20030;-85
2023/12/18 10:58:17;;;;;;;7.50;3.70;;;5.50;99.90;;;;;;5004227;28;20025;-85
2023/12/18 11:00:44;;;;;;;6.40;3.70;;;5.50;99.90;;;;;;5006163;28;20037;-86
2023/12/18 11:03:09;;;;;;;9.40;3.53;;;5.50;99.90;;;;;;4986853;28;20037;-86
2023/12/18 11:05:37;;;;;;;5.20;3.80;;;5.60;99.90;;;;;;5002320;28;20067;-87
2023/12/18 11:08:03;;;;;;;5.90;3.63;;;5.60;99.90;;;;;;5005702;28;20034;-86
2023/12/18 11:10:29;;;;;;;5.23;3.20;;;5.60;99.90;;;;;;5004808;28;20038;-85
2023/12/18 11:13:07;;;;;;;5.70;3.67;;;5.60;99.90;;;;;;5004735;28;20056;-85
2023/12/18 11:15:56;;;;;;;5.40;3.23;;;5.70;99.90;;;;;;5006337;28;20061;-85
2023/12/18 11:18:50;;;;;;;7.53;3.33;;;5.70;99.90;;;;;;5005372;28;20442;-85
2023/12/18 11:21:16;;;;;;;4.33;2.77;;;5.80;99.90;;;;;;5005721;28;20111;-86
2023/12/18 11:23:42;;;;;;;9.27;2.87;;;6.00;99.90;;;;;;5006097;28;20026;-85
2023/12/18 11:26:12;;;;;;;4.73;2.90;;;6.20;99.90;;;;;;5006294;28;20031;-85
2023/12/18 11:28:38;;;;;;;5.47;2.70;;;6.30;99.90;;;;;;5005374;28;20056;-86
2023/12/18 11:31:10;;;;;;;9.03;2.77;;;6.50;99.90;;;;;;5005960;28;20057;-86
2023/12/18 11:33:35;;;;;;;5.50;2.50;;;6.60;99.90;;;;;;5004404;28;20038;-85
2023/12/18 11:36:01;;;;;;;4.70;2.63;;;6.80;99.90;;;;;;5007428;28;20143;-85
2023/12/18 11:38:26;;;;;;;4.73;2.70;;;6.90;99.90;;;;;;5005613;28;20513;-86
2023/12/18 11:40:52;;;;;;;6.53;2.50;;;7.00;99.90;;;;;;5006431;28;20030;-86
2023/12/18 11:43:38;;;;;;;5.20;2.57;;;7.10;99.90;;;;;;5002153;28;20100;-75
2023/12/18 11:46:07;;;;;;;;;;;7.30;99.90;;;;;;4999503;28;20496;-86
2023/12/18 11:48:34;;;;;;;5.50;2.53;;;7.30;99.90;;;;;;4998443;28;19913;-86
2023/12/18 11:51:02;;;;;;;5.97;3.60;;;7.40;99.90;;;;;;4995707;28;20038;-86
2023/12/18 11:53:34;;;;;;;4.37;2.00;;;7.50;99.90;;;;;;4995913;28;20523;-86
2023/12/18 11:56:09;;;;;;;5.67;2.20;;;7.60;99.90;;;;;;4994777;28;20457;-85
2023/12/18 11:58:37;;;;;;;4.68;2.05;;;7.70;99.90;;;;;;4993702;28;20938;-87
2023/12/18 12:01:03;;;;;;;3.50;1.93;;;7.80;99.90;;;;;;4995545;28;20021;-86
2023/12/18 12:03:31;;;;;;;5.53;1.80;;;8.00;99.90;;;;;;4996370;28;20033;-86
2023/12/18 12:05:58;;;;;;;2.70;1.80;;;8.20;99.90;;;;;;4979503;28;20035;-85
2023/12/18 12:08:24;;;;;;;4.30;2.37;;;8.20;99.90;;;;;;4998091;28;20037;-86
2023/12/18 12:10:50;;;;;;;3.13;2.20;;;8.40;99.90;;;;;;4999555;28;20038;-86
2023/12/18 12:13:18;;;;;;;2.90;1.70;;;8.50;99.90;;;;;;4999940;28;20038;-85
2023/12/18 12:15:54;;;;;;;4.73;2.20;;;8.50;99.90;;;;;;5000920;28;20710;-85
2023/12/18 12:18:20;;;;;;;3.77;2.10;;;8.70;99.90;;;;;;4996514;28;20037;-85
2023/12/18 12:20:45;;;;;;;3.47;1.90;;;8.80;99.90;;;;;;5001412;28;20027;-85
2023/12/18 12:23:11;;;;;;;3.30;2.10;;;8.90;99.90;;;;;;5004158;28;20030;-85
2023/12/18 12:25:38;;;;;;;4.33;2.23;;;9.00;99.90;;;;;;5002839;28;20053;-86
2023/12/18 12:28:03;;;;;;;3.53;2.10;;;9.00;99.90;;;;;;5000516;28;20046;-86
2023/12/18 12:30:29;;;;;;;4.70;2.20;;;9.10;99.90;;;;;;5000986;28;20133;-86
2023/12/18 12:32:55;;;;;;;5.90;2.20;;;9.20;99.90;;;;;;5000247;28;20507;-86
2023/12/18 12:35:21;;;;;;;4.87;2.10;;;9.30;99.90;;;;;;5001533;28;20250;-86
2023/12/18 12:37:46;;;;;;;4.00;1.87;;;9.30;99.90;;;;;;5001755;28;20528;-85
2023/12/18 12:40:13;;;;;;;4.33;2.40;;;9.40;99.90;;;;;;5002423;28;20022;-85
2023/12/18 12:42:40;;;;;;;6.10;2.33;;;9.50;99.90;;;;;;5006884;28;20065;-85